Santa Fe Municipal, NM

00:49 MDT le 02 septembre 2014 (GMT -0600)
Santa Fe Municipal | Change Station
CLOSE
Current Station
Aéroport
Location: Santa Fe,
Altitude: 6345 ft
Stations météo à proximité

Alt. 6345 ft 35.62 °N, 106.09 °W | Updated 56 minutes ago

Clear
Ciel dégagé
64 ° F
Paraît 64 ° F
N
8
Vent Variable Vent de NE

Aujourd'hui
Haut(e) -- | Bas -- ° F
--% Risque de précip.
Hier
Haut(e) -- | Bas -- ° F
Precip. -- pouce
6:37 AM 7:30 PM
Lune montante, 48% visible
Pression 29.82 pouce
Visibilité 10.0 Miles terrestres
Nuages Ciel dégagé
Point de rosée 31 ° F
Humidité 29%
Précipitations 0.00 pouce
Profondeur de la couche neigeuse Non disponible.
UV 0 sur 12
Pollen 8.90 sur 12
Qualité de l'air Non disponible.
Flu Activity Non disponible.
METAR KSAF 020553Z AUTO 04007KT 10SM CLR 18/M01 A3014 RMK AO2 SLP098 T01781006 10306 20167 50007

More Conditions Fewer Conditions

Pression 29.82 pouce
Visibilité 10.0 Miles terrestres
Nuages Ciel dégagé
Point de rosée 31 ° F
Humidité 29%
Précipitations 0.00 pouce
Profondeur de la couche neigeuse Non disponible.
UV 0 sur 12
Pollen 8.90 sur 12
Qualité de l'air Non disponible.
Flu Activity Non disponible.
METAR KSAF 020553Z AUTO 04007KT 10SM CLR 18/M01 A3014 RMK AO2 SLP098 T01781006 10306 20167 50007

More Conditions Fewer Conditions

10-Day Weather Forecast

Almanac

Astronomie

Sep. 02, 2014 Lever Coucher
Temps réel 06:37 MDT 19:30 MDT
Crépuscule civil 06:11 MDT 19:56 MDT
Crépuscule nautique 05:40 MDT 20:26 MDT
Crépuscule astronomique 05:08 MDT 20:58 MDT
Lune 14:09 MDT Pas de coucher de lune
Durée de lumière visible 13h 44m
Longueur du jour
12h 52m
Tomorrow will be 2m 9s shorter.
Lune montante, 48% of the Moon is Illuminated
Aujourd'hui
Lune montante
Sep 2
Premier quartier
Sep 8
Pleine lune
Sep 15
Dernier quartier
Sep 24
Nouveau

Extrêmes aujourd'hui

State Highs State Lows

Community

WunderPhotos

Upload Photos

1,749,589 Photos téléchargées !

WunderBlogs® & News

Nearby

Épaisseur de neige

Station Depth Altitude
Quemazon 1 in 9500 ft
Wesner Springs 2 in 11120 ft
Gallegos Peak 0 in 9800 ft
Senorita Divide #2 0 in 8600 ft
Bateman 0 in 9300 ft

Activité sismique

Ville Distance Mag. Time & Date
Trinidad, Colorado 119 Miles terrestres 2.7 04:20 MDT
2014-08-31
Minimum magnitude displayed is 2.5.

Températures des eaux côtières

Lieu Température
Aucun rapport de station

Stations météo à proximité